createdAt,value
2022-07-25T00:02:02.691Z,101143.50
2022-07-25T00:07:05.104Z,101129.50
2022-07-25T00:12:09.027Z,101122.69
2022-07-25T00:17:13.517Z,101117.69
2022-07-25T00:22:15.639Z,101112.72
2022-07-25T00:27:19.517Z,101101.28
2022-07-25T00:32:21.544Z,101103.00
2022-07-25T00:37:23.739Z,101102.28
2022-07-25T00:42:27.305Z,101096.03
2022-07-25T00:47:29.453Z,101091.56
2022-07-25T00:52:31.458Z,101086.41
2022-07-25T00:57:35.101Z,101071.47
2022-07-25T01:02:37.317Z,101074.94
2022-07-25T01:07:39.979Z,101072.28
2022-07-25T01:12:48.584Z,101061.88
2022-07-25T01:17:51.503Z,101071.78
2022-07-25T01:22:55.582Z,101070.13
2022-07-25T01:27:57.946Z,101064.91
2022-07-25T01:33:00.159Z,101056.19
2022-07-25T01:38:10.070Z,101054.72
2022-07-25T01:43:12.377Z,101042.41
2022-07-25T01:48:14.399Z,101044.16
2022-07-25T01:53:17.781Z,101045.94
2022-07-25T01:58:19.528Z,101043.56
2022-07-25T02:03:21.662Z,101041.84
2022-07-25T02:08:25.498Z,101030.59
2022-07-25T02:13:27.994Z,101031.53
2022-07-25T02:18:30.084Z,101016.50
2022-07-25T02:23:33.585Z,101012.09
2022-07-25T02:28:35.923Z,101013.06
2022-07-25T02:33:38.430Z,101007.88
2022-07-25T02:38:41.997Z,100993.75
2022-07-25T02:43:44.154Z,100991.97
2022-07-25T02:48:46.449Z,100991.22
2022-07-25T02:53:58.542Z,100988.78
2022-07-25T02:59:01.319Z,100987.91
2022-07-25T03:04:03.666Z,100980.84
2022-07-25T03:09:07.407Z,100976.47
2022-07-25T03:14:09.951Z,100962.31
2022-07-25T03:19:12.249Z,100965.94
2022-07-25T03:24:15.693Z,100964.00
2022-07-25T03:29:17.951Z,100952.50
2022-07-25T03:34:19.695Z,100955.06
2022-07-25T03:39:22.985Z,100932.75
2022-07-25T03:44:25.990Z,100939.84
2022-07-25T03:49:28.043Z,100937.03
2022-07-25T03:54:31.526Z,100935.19
2022-07-25T03:59:33.674Z,100932.44
2022-07-25T04:04:36.514Z,100931.47
2022-07-25T04:09:39.600Z,100934.78
2022-07-25T04:14:41.722Z,100927.53
2022-07-25T04:19:43.435Z,100926.41
2022-07-25T04:24:47.469Z,100912.59
2022-07-25T04:29:50.031Z,100919.88
2022-07-25T04:34:52.094Z,100912.59
2022-07-25T04:39:55.654Z,100904.16
2022-07-25T04:49:59.419Z,100878.59
2022-07-25T04:55:03.071Z,100871.06
2022-07-25T05:00:07.873Z,100859.84
2022-07-25T05:05:21.191Z,100855.69
2022-07-25T05:10:30.353Z,100864.47
2022-07-25T05:15:32.426Z,100850.88
2022-07-25T05:20:34.150Z,100847.16
2022-07-25T05:25:38.541Z,100846.19
2022-07-25T05:30:40.804Z,100835.81
2022-07-25T05:35:42.848Z,100839.09
2022-07-25T05:40:45.893Z,100838.53
2022-07-25T05:45:47.891Z,100833.47
2022-07-25T05:50:49.946Z,100827.69
2022-07-25T05:55:53.505Z,100825.94
2022-07-25T06:00:55.616Z,100816.94
2022-07-25T06:05:57.370Z,100820.13
2022-07-25T06:11:00.635Z,100812.78
2022-07-25T06:16:04.176Z,100803.13
2022-07-25T06:21:06.635Z,100798.34
2022-07-25T06:26:10.777Z,100784.25
2022-07-25T06:31:12.949Z,100776.97
2022-07-25T06:36:15.068Z,100777.41
2022-07-25T06:41:18.565Z,100772.16
2022-07-25T06:46:20.891Z,100776.19
2022-07-25T06:51:22.720Z,100761.59
2022-07-25T06:56:25.974Z,100757.44
2022-07-25T07:01:28.031Z,100751.38
2022-07-25T07:06:30.528Z,100746.53
2022-07-25T07:11:33.922Z,100742.78
2022-07-25T07:16:35.829Z,100732.72
2022-07-25T07:21:37.786Z,100729.00
2022-07-25T07:26:40.819Z,100719.34
2022-07-25T07:31:42.853Z,100721.72
2022-07-25T07:36:44.666Z,100714.13
2022-07-25T07:41:47.753Z,100709.16
2022-07-25T07:46:49.596Z,100709.34
2022-07-25T07:51:51.694Z,100707.94
2022-07-25T07:56:54.783Z,100698.16
2022-07-25T08:01:56.551Z,100707.50
2022-07-25T08:06:58.380Z,100700.25
2022-07-25T08:12:01.465Z,100687.03
2022-07-25T08:17:03.214Z,100679.13
2022-07-25T08:22:05.231Z,100680.03
2022-07-25T08:27:08.316Z,100672.19
2022-07-25T08:32:10.279Z,100674.31
2022-07-25T08:37:12.502Z,100667.84
2022-07-25T08:42:15.882Z,100664.09
2022-07-25T08:47:18.100Z,100662.06
2022-07-25T08:52:20.173Z,100651.31
2022-07-25T08:57:23.545Z,100648.88
2022-07-25T09:02:26.882Z,100645.84
2022-07-25T09:07:31.179Z,100637.47
2022-07-25T09:12:34.596Z,100642.50
2022-07-25T09:17:50.093Z,100634.59
2022-07-25T09:22:52.126Z,100613.50
2022-07-25T09:27:55.520Z,100607.19
2022-07-25T09:33:01.085Z,100599.00
2022-07-25T09:38:13.331Z,100599.75
2022-07-25T09:43:19.457Z,100586.25
2022-07-25T09:48:21.175Z,100579.25
2022-07-25T09:53:23.195Z,100567.28
2022-07-25T09:58:27.050Z,100559.13
2022-07-25T10:03:42.536Z,100557.50
2022-07-25T10:08:44.616Z,100547.28
2022-07-25T10:13:48.227Z,100541.53
2022-07-25T10:18:52.440Z,100536.63
2022-07-25T10:23:59.248Z,100532.97
2022-07-25T10:29:08.691Z,100513.13
2022-07-25T10:34:12.181Z,100507.78
2022-07-25T10:39:16.153Z,100503.47
2022-07-25T10:44:20.118Z,100500.09
2022-07-25T10:49:31.944Z,100471.66
2022-07-25T10:54:36.241Z,100476.09
2022-07-25T10:59:39.643Z,100462.31
2022-07-25T11:04:42.053Z,100459.34
2022-07-25T11:09:44.481Z,100449.94
2022-07-25T11:14:48.033Z,100446.75
2022-07-25T11:19:55.369Z,100440.75
2022-07-25T11:24:58.394Z,100443.63
2022-07-25T11:30:08.287Z,100432.16
2022-07-25T11:35:11.221Z,100423.44
2022-07-25T11:40:13.576Z,100409.13
2022-07-25T11:45:18.655Z,100393.59
2022-07-25T11:50:29.889Z,100409.03
2022-07-25T11:55:33.557Z,100388.88
2022-07-25T12:00:43.536Z,100374.81
2022-07-25T12:05:45.810Z,100375.34
2022-07-25T12:10:49.130Z,100365.38
2022-07-25T12:15:53.246Z,100365.72
2022-07-25T12:20:55.437Z,100352.47
2022-07-25T12:25:57.543Z,100346.44
2022-07-25T12:31:00.634Z,100333.44
2022-07-25T12:36:08.073Z,100330.88
2022-07-25T12:41:14.608Z,100312.59
2022-07-25T12:46:20.664Z,100320.78
2022-07-25T12:51:22.427Z,100304.84
2022-07-25T12:56:24.298Z,100303.41
2022-07-25T13:01:27.766Z,100304.31
2022-07-25T13:06:29.569Z,100296.44
2022-07-25T13:11:31.774Z,100280.31
2022-07-25T13:16:35.227Z,100276.28
2022-07-25T13:21:37.141Z,100277.81
2022-07-25T13:26:39.088Z,100275.91
2022-07-25T13:31:43.230Z,100265.16
2022-07-25T13:36:46.933Z,100252.09
2022-07-25T13:41:48.935Z,100242.59
2022-07-25T13:46:52.001Z,100245.94
2022-07-25T13:51:53.708Z,100245.94
2022-07-25T13:56:55.936Z,100225.66
2022-07-25T14:01:59.445Z,100219.56
2022-07-25T14:07:01.660Z,100221.91
2022-07-25T14:12:04.177Z,100209.22
2022-07-25T14:17:07.355Z,100209.44
2022-07-25T14:22:09.169Z,100199.16
2022-07-25T14:27:11.208Z,100200.59
2022-07-25T14:32:14.738Z,100204.47
2022-07-25T14:37:16.806Z,100193.50
2022-07-25T14:42:19.876Z,100191.00
2022-07-25T14:47:23.526Z,100180.56
2022-07-25T14:52:28.999Z,100186.09
2022-07-25T14:57:30.743Z,100166.97
2022-07-25T15:02:33.895Z,100153.13
2022-07-25T15:07:37.358Z,100152.41
2022-07-25T15:12:39.117Z,100142.81
2022-07-25T15:17:42.508Z,100135.56
2022-07-25T15:22:44.257Z,100114.88
2022-07-25T15:27:46.462Z,100111.66
2022-07-25T15:32:49.881Z,100098.75
2022-07-25T15:37:52.403Z,100092.16
2022-07-25T15:42:54.293Z,100086.47
2022-07-25T15:47:59.256Z,100075.31
2022-07-25T15:53:00.986Z,100076.69
2022-07-25T15:58:03.421Z,100065.03
2022-07-25T16:03:06.792Z,100037.19
2022-07-25T16:08:08.650Z,100041.84
2022-07-25T16:13:10.548Z,100030.13
2022-07-25T16:18:13.662Z,100028.97
2022-07-25T16:23:15.416Z,100030.03
2022-07-25T16:28:17.303Z,100035.38
2022-07-25T16:33:20.481Z,100037.38
2022-07-25T16:38:22.547Z,100036.31
2022-07-25T16:43:24.702Z,100082.06
2022-07-25T16:48:28.889Z,100082.16
2022-07-25T16:53:31.165Z,100091.50
2022-07-25T16:58:34.510Z,100105.75
2022-07-25T17:03:37.953Z,100155.91
2022-07-25T17:08:39.663Z,100192.88
2022-07-25T17:13:41.726Z,100157.09
2022-07-25T17:18:44.957Z,100141.25
2022-07-25T17:23:47.003Z,100183.22
2022-07-25T17:28:48.791Z,100168.25
2022-07-25T17:33:52.214Z,100222.31
2022-07-25T17:38:54.957Z,100231.97
2022-07-25T17:43:56.677Z,100229.63
2022-07-25T17:49:00.409Z,100212.63
2022-07-25T17:54:02.216Z,100208.03
2022-07-25T17:59:03.947Z,100254.09
2022-07-25T18:04:07.567Z,100212.16
2022-07-25T18:09:09.676Z,100216.19
2022-07-25T18:14:11.645Z,100191.53
2022-07-25T18:19:15.103Z,100191.88
2022-07-25T18:24:16.935Z,100210.66
2022-07-25T18:29:18.787Z,100216.28
2022-07-25T18:34:21.874Z,100212.59
2022-07-25T18:39:23.914Z,100223.44
2022-07-25T18:44:25.661Z,100199.00
2022-07-25T18:49:29.303Z,100186.88
2022-07-25T18:54:31.025Z,100192.31
2022-07-25T18:59:32.846Z,100188.53
2022-07-25T19:04:35.961Z,100175.31
2022-07-25T19:09:38.092Z,100191.19
2022-07-25T19:14:40.110Z,100199.81
2022-07-25T19:19:43.559Z,100206.00
2022-07-25T19:24:45.357Z,100206.59
2022-07-25T19:29:47.444Z,100198.16
2022-07-25T19:34:51.666Z,100205.91
2022-07-25T19:39:53.732Z,100211.75
2022-07-25T19:44:55.687Z,100224.44
2022-07-25T19:49:58.720Z,100301.91
2022-07-25T19:55:00.427Z,100271.75
2022-07-25T20:00:02.293Z,100290.84
2022-07-25T20:05:05.655Z,100286.28
2022-07-25T20:10:08.924Z,100283.66
2022-07-25T20:15:11.124Z,100302.66
2022-07-25T20:20:14.249Z,100324.22
2022-07-25T20:25:16.186Z,100336.56
2022-07-25T20:30:18.094Z,100332.69
2022-07-25T20:35:21.138Z,100352.69
2022-07-25T20:40:23.066Z,100374.50
2022-07-25T20:45:25.190Z,100386.69
2022-07-25T20:50:28.805Z,100400.91
2022-07-25T20:55:30.803Z,100414.69
2022-07-25T21:00:32.939Z,100412.94
2022-07-25T21:05:36.809Z,100422.16
2022-07-25T21:10:38.833Z,100431.78
2022-07-25T21:15:40.609Z,100449.44
2022-07-25T21:20:45.652Z,100485.63
2022-07-25T21:25:47.775Z,100503.19
2022-07-25T21:30:49.747Z,100510.84
2022-07-25T21:35:53.758Z,100506.31
2022-07-25T21:40:56.274Z,100491.44
2022-07-25T21:45:58.371Z,100501.91
2022-07-25T21:51:01.516Z,100480.50
2022-07-25T21:56:09.481Z,100488.97
2022-07-25T22:01:11.891Z,100464.47
2022-07-25T22:06:15.391Z,100481.63
2022-07-25T22:11:38.694Z,100486.34
2022-07-25T22:16:39.442Z,100501.25
2022-07-25T22:21:42.967Z,100497.91
2022-07-25T22:26:45.313Z,100504.94
2022-07-25T22:31:47.471Z,100495.53
2022-07-25T22:36:51.042Z,100503.72
2022-07-25T22:41:53.077Z,100509.97
2022-07-25T22:46:55.128Z,100523.25
2022-07-25T22:51:58.610Z,100522.94
2022-07-25T22:57:01.038Z,100516.84
2022-07-25T23:02:03.068Z,100523.56
2022-07-25T23:07:06.583Z,100527.50
2022-07-25T23:12:09.219Z,100537.31
2022-07-25T23:17:11.383Z,100546.28
2022-07-25T23:22:15.046Z,100544.41
2022-07-25T23:27:16.971Z,100562.66
2022-07-25T23:32:19.555Z,100585.97
2022-07-25T23:37:23.016Z,100598.06
2022-07-25T23:42:25.260Z,100614.75
2022-07-25T23:47:39.220Z,100571.22
2022-07-25T23:52:43.391Z,100563.56
2022-07-25T23:57:45.178Z,100570.31
